sensor_id;sensor_type;location;lat;lon;timestamp;temperature;humidity
30973;DHT22;25423;45.624;13.790;2022-09-02T00:00:11;20.40;99.90
30973;DHT22;25423;45.624;13.790;2022-09-02T00:02:37;20.50;99.90
30973;DHT22;25423;45.624;13.790;2022-09-02T00:05:03;20.40;99.90
30973;DHT22;25423;45.624;13.790;2022-09-02T00:07:28;20.40;99.90
30973;DHT22;25423;45.624;13.790;2022-09-02T00:09:54;20.50;99.90
30973;DHT22;25423;45.624;13.790;2022-09-02T00:12:19;20.60;99.90
30973;DHT22;25423;45.624;13.790;2022-09-02T00:14:45;20.50;99.90
30973;DHT22;25423;45.624;13.790;2022-09-02T00:17:11;20.30;99.90
30973;DHT22;25423;45.624;13.790;2022-09-02T00:19:36;20.40;99.90
30973;DHT22;25423;45.624;13.790;2022-09-02T00:22:02;20.30;99.90
30973;DHT22;25423;45.624;13.790;2022-09-02T00:24:29;20.30;99.90
30973;DHT22;25423;45.624;13.790;2022-09-02T00:26:55;20.20;99.90
30973;DHT22;25423;45.624;13.790;2022-09-02T00:29:20;20.20;99.90
30973;DHT22;25423;45.624;13.790;2022-09-02T00:31:46;20.30;99.90
30973;DHT22;25423;45.624;13.790;2022-09-02T00:34:12;20.40;99.90
30973;DHT22;25423;45.624;13.790;2022-09-02T00:36:38;20.40;99.90
30973;DHT22;25423;45.624;13.790;2022-09-02T00:39:04;20.40;99.90
30973;DHT22;25423;45.624;13.790;2022-09-02T00:41:31;20.40;99.90
30973;DHT22;25423;45.624;13.790;2022-09-02T00:44:05;20.50;99.90
30973;DHT22;25423;45.624;13.790;2022-09-02T00:46:32;20.50;99.90
30973;DHT22;25423;45.624;13.790;2022-09-02T00:49:07;20.40;99.90
30973;DHT22;25423;45.624;13.790;2022-09-02T00:51:35;20.30;99.90
30973;DHT22;25423;45.624;13.790;2022-09-02T00:54:02;20.20;99.90
30973;DHT22;25423;45.624;13.790;2022-09-02T00:56:29;20.30;99.90
30973;DHT22;25423;45.624;13.790;2022-09-02T00:58:55;20.40;99.90
30973;DHT22;25423;45.624;13.790;2022-09-02T01:01:21;20.50;99.90
30973;DHT22;25423;45.624;13.790;2022-09-02T01:03:47;20.40;99.90
30973;DHT22;25423;45.624;13.790;2022-09-02T01:06:13;20.50;99.90
30973;DHT22;25423;45.624;13.790;2022-09-02T01:08:41;20.50;99.90
30973;DHT22;25423;45.624;13.790;2022-09-02T01:11:07;20.50;99.90
30973;DHT22;25423;45.624;13.790;2022-09-02T01:13:35;20.40;99.90
30973;DHT22;25423;45.624;13.790;2022-09-02T01:16:05;20.40;99.90
30973;DHT22;25423;45.624;13.790;2022-09-02T01:18:34;20.30;99.90
30973;DHT22;25423;45.624;13.790;2022-09-02T01:21:01;20.30;99.90
30973;DHT22;25423;45.624;13.790;2022-09-02T01:23:27;20.30;99.90
30973;DHT22;25423;45.624;13.790;2022-09-02T01:25:53;20.30;99.90
30973;DHT22;25423;45.624;13.790;2022-09-02T01:28:19;20.30;99.90
30973;DHT22;25423;45.624;13.790;2022-09-02T01:30:46;20.30;99.90
30973;DHT22;25423;45.624;13.790;2022-09-02T01:33:13;20.20;99.90
30973;DHT22;25423;45.624;13.790;2022-09-02T01:35:39;20.20;99.90
30973;DHT22;25423;45.624;13.790;2022-09-02T01:38:05;20.20;99.90
30973;DHT22;25423;45.624;13.790;2022-09-02T01:40:31;20.20;99.90
30973;DHT22;25423;45.624;13.790;2022-09-02T01:42:59;20.20;99.90
30973;DHT22;25423;45.624;13.790;2022-09-02T01:45:27;20.20;99.90
30973;DHT22;25423;45.624;13.790;2022-09-02T01:47:54;20.20;99.90
30973;DHT22;25423;45.624;13.790;2022-09-02T01:50:20;20.20;99.90
30973;DHT22;25423;45.624;13.790;2022-09-02T01:52:46;20.20;99.90
30973;DHT22;25423;45.624;13.790;2022-09-02T01:55:11;20.20;99.90
30973;DHT22;25423;45.624;13.790;2022-09-02T01:57:37;20.20;99.90
30973;DHT22;25423;45.624;13.790;2022-09-02T02:00:04;20.20;99.90
30973;DHT22;25423;45.624;13.790;2022-09-02T02:02:30;20.20;99.90
30973;DHT22;25423;45.624;13.790;2022-09-02T02:04:56;20.30;99.90
30973;DHT22;25423;45.624;13.790;2022-09-02T02:07:21;20.20;99.90
30973;DHT22;25423;45.624;13.790;2022-09-02T02:09:48;20.20;99.90
30973;DHT22;25423;45.624;13.790;2022-09-02T02:12:14;20.30;99.90
30973;DHT22;25423;45.624;13.790;2022-09-02T02:14:40;20.20;99.90
30973;DHT22;25423;45.624;13.790;2022-09-02T02:17:05;20.20;99.90
30973;DHT22;25423;45.624;13.790;2022-09-02T02:19:31;20.20;99.90
30973;DHT22;25423;45.624;13.790;2022-09-02T02:21:57;20.20;99.90
30973;DHT22;25423;45.624;13.790;2022-09-02T02:24:22;20.20;99.90
30973;DHT22;25423;45.624;13.790;2022-09-02T02:26:48;20.20;99.90
30973;DHT22;25423;45.624;13.790;2022-09-02T02:29:14;20.20;99.90
30973;DHT22;25423;45.624;13.790;2022-09-02T02:31:39;20.20;99.90
30973;DHT22;25423;45.624;13.790;2022-09-02T02:34:05;20.20;99.90
30973;DHT22;25423;45.624;13.790;2022-09-02T02:36:31;20.20;99.90
30973;DHT22;25423;45.624;13.790;2022-09-02T02:38:57;20.20;99.90
30973;DHT22;25423;45.624;13.790;2022-09-02T02:41:23;20.10;99.90
30973;DHT22;25423;45.624;13.790;2022-09-02T02:43:48;20.10;99.90
30973;DHT22;25423;45.624;13.790;2022-09-02T02:46:14;20.10;99.90
30973;DHT22;25423;45.624;13.790;2022-09-02T02:48:40;20.10;99.90
30973;DHT22;25423;45.624;13.790;2022-09-02T02:51:06;20.10;99.90
30973;DHT22;25423;45.624;13.790;2022-09-02T02:53:32;19.90;99.90
30973;DHT22;25423;45.624;13.790;2022-09-02T02:55:59;19.90;99.90
30973;DHT22;25423;45.624;13.790;2022-09-02T02:58:25;19.80;99.90
30973;DHT22;25423;45.624;13.790;2022-09-02T03:00:50;19.80;99.90
30973;DHT22;25423;45.624;13.790;2022-09-02T03:03:16;19.70;99.90
30973;DHT22;25423;45.624;13.790;2022-09-02T03:05:43;19.70;99.90
30973;DHT22;25423;45.624;13.790;2022-09-02T03:08:10;19.70;99.90
30973;DHT22;25423;45.624;13.790;2022-09-02T03:10:36;19.90;99.90
30973;DHT22;25423;45.624;13.790;2022-09-02T03:13:03;19.90;99.90
30973;DHT22;25423;45.624;13.790;2022-09-02T03:15:29;19.90;99.90
30973;DHT22;25423;45.624;13.790;2022-09-02T03:17:54;19.80;99.90
30973;DHT22;25423;45.624;13.790;2022-09-02T03:20:20;19.80;99.90
30973;DHT22;25423;45.624;13.790;2022-09-02T03:22:47;19.90;99.90
30973;DHT22;25423;45.624;13.790;2022-09-02T03:25:14;20.00;99.90
30973;DHT22;25423;45.624;13.790;2022-09-02T03:27:43;19.80;99.90
30973;DHT22;25423;45.624;13.790;2022-09-02T03:30:11;19.70;99.90
30973;DHT22;25423;45.624;13.790;2022-09-02T03:32:39;19.90;99.90
30973;DHT22;25423;45.624;13.790;2022-09-02T03:35:05;20.00;99.90
30973;DHT22;25423;45.624;13.790;2022-09-02T03:37:32;20.00;99.90
30973;DHT22;25423;45.624;13.790;2022-09-02T03:39:57;20.00;99.90
30973;DHT22;25423;45.624;13.790;2022-09-02T03:42:23;20.00;99.90
30973;DHT22;25423;45.624;13.790;2022-09-02T03:44:49;20.10;99.90
30973;DHT22;25423;45.624;13.790;2022-09-02T03:47:15;20.00;99.90
30973;DHT22;25423;45.624;13.790;2022-09-02T03:49:42;20.00;99.90
30973;DHT22;25423;45.624;13.790;2022-09-02T03:52:07;20.10;99.90
30973;DHT22;25423;45.624;13.790;2022-09-02T03:54:33;20.00;99.90
30973;DHT22;25423;45.624;13.790;2022-09-02T03:56:58;19.90;99.90
30973;DHT22;25423;45.624;13.790;2022-09-02T03:59:24;19.90;99.90
30973;DHT22;25423;45.624;13.790;2022-09-02T04:01:50;20.00;99.90
30973;DHT22;25423;45.624;13.790;2022-09-02T04:04:17;20.00;99.90
30973;DHT22;25423;45.624;13.790;2022-09-02T04:06:43;19.90;99.90
30973;DHT22;25423;45.624;13.790;2022-09-02T04:09:09;20.00;99.90
30973;DHT22;25423;45.624;13.790;2022-09-02T04:11:34;20.00;99.90
30973;DHT22;25423;45.624;13.790;2022-09-02T04:14:07;19.90;99.90
30973;DHT22;25423;45.624;13.790;2022-09-02T04:16:36;19.90;99.90
30973;DHT22;25423;45.624;13.790;2022-09-02T04:19:02;19.90;99.90
30973;DHT22;25423;45.624;13.790;2022-09-02T04:21:30;19.90;99.90
30973;DHT22;25423;45.624;13.790;2022-09-02T04:23:56;19.90;99.90
30973;DHT22;25423;45.624;13.790;2022-09-02T04:26:22;19.80;99.90
30973;DHT22;25423;45.624;13.790;2022-09-02T04:28:48;19.80;99.90
30973;DHT22;25423;45.624;13.790;2022-09-02T04:31:15;19.80;99.90
30973;DHT22;25423;45.624;13.790;2022-09-02T04:33:45;19.80;99.90
30973;DHT22;25423;45.624;13.790;2022-09-02T04:36:15;19.80;99.90
30973;DHT22;25423;45.624;13.790;2022-09-02T04:38:44;19.80;99.90
30973;DHT22;25423;45.624;13.790;2022-09-02T04:41:11;19.80;99.90
30973;DHT22;25423;45.624;13.790;2022-09-02T04:43:40;19.80;99.90
30973;DHT22;25423;45.624;13.790;2022-09-02T04:46:07;19.80;99.90
30973;DHT22;25423;45.624;13.790;2022-09-02T04:48:34;19.80;99.90
30973;DHT22;25423;45.624;13.790;2022-09-02T04:51:08;19.70;99.90
30973;DHT22;25423;45.624;13.790;2022-09-02T04:53:34;19.70;99.90
30973;DHT22;25423;45.624;13.790;2022-09-02T04:56:02;19.70;99.90
30973;DHT22;25423;45.624;13.790;2022-09-02T04:58:28;19.70;99.90
30973;DHT22;25423;45.624;13.790;2022-09-02T05:00:53;19.70;99.90
30973;DHT22;25423;45.624;13.790;2022-09-02T05:03:19;19.80;99.90
30973;DHT22;25423;45.624;13.790;2022-09-02T05:05:45;19.80;99.90
30973;DHT22;25423;45.624;13.790;2022-09-02T05:08:12;19.80;99.90
30973;DHT22;25423;45.624;13.790;2022-09-02T05:10:38;19.80;99.90
30973;DHT22;25423;45.624;13.790;2022-09-02T05:13:04;19.90;99.90
30973;DHT22;25423;45.624;13.790;2022-09-02T05:15:29;19.90;99.90
30973;DHT22;25423;45.624;13.790;2022-09-02T05:17:56;19.90;99.90
30973;DHT22;25423;45.624;13.790;2022-09-02T05:20:21;19.90;99.90
30973;DHT22;25423;45.624;13.790;2022-09-02T05:22:48;20.00;99.90
30973;DHT22;25423;45.624;13.790;2022-09-02T05:25:14;19.90;99.90
30973;DHT22;25423;45.624;13.790;2022-09-02T05:27:40;20.00;99.90
30973;DHT22;25423;45.624;13.790;2022-09-02T05:30:06;20.10;99.90
30973;DHT22;25423;45.624;13.790;2022-09-02T05:32:32;20.10;99.90
30973;DHT22;25423;45.624;13.790;2022-09-02T05:34:57;20.10;99.90
30973;DHT22;25423;45.624;13.790;2022-09-02T05:37:23;20.10;99.90
30973;DHT22;25423;45.624;13.790;2022-09-02T05:39:49;20.20;99.90
30973;DHT22;25423;45.624;13.790;2022-09-02T05:42:15;20.20;99.90
30973;DHT22;25423;45.624;13.790;2022-09-02T05:44:41;20.20;99.90
30973;DHT22;25423;45.624;13.790;2022-09-02T05:47:09;20.30;99.90
30973;DHT22;25423;45.624;13.790;2022-09-02T05:49:35;20.20;99.90
30973;DHT22;25423;45.624;13.790;2022-09-02T05:52:01;20.20;99.90
30973;DHT22;25423;45.624;13.790;2022-09-02T05:54:27;20.30;99.90
30973;DHT22;25423;45.624;13.790;2022-09-02T05:56:55;20.30;99.90
30973;DHT22;25423;45.624;13.790;2022-09-02T05:59:22;20.30;99.90
30973;DHT22;25423;45.624;13.790;2022-09-02T06:01:48;20.30;99.90
30973;DHT22;25423;45.624;13.790;2022-09-02T06:04:14;20.40;99.90
30973;DHT22;25423;45.624;13.790;2022-09-02T06:06:40;20.40;99.90
30973;DHT22;25423;45.624;13.790;2022-09-02T06:09:06;20.40;99.90
30973;DHT22;25423;45.624;13.790;2022-09-02T06:11:33;20.40;99.90
30973;DHT22;25423;45.624;13.790;2022-09-02T06:13:58;20.50;99.90
30973;DHT22;25423;45.624;13.790;2022-09-02T06:16:25;20.50;99.90
30973;DHT22;25423;45.624;13.790;2022-09-02T06:18:51;20.50;99.90
30973;DHT22;25423;45.624;13.790;2022-09-02T06:21:17;20.60;99.90
30973;DHT22;25423;45.624;13.790;2022-09-02T06:23:43;20.60;99.90
30973;DHT22;25423;45.624;13.790;2022-09-02T06:26:10;20.60;99.90
30973;DHT22;25423;45.624;13.790;2022-09-02T06:28:36;20.60;99.90
30973;DHT22;25423;45.624;13.790;2022-09-02T06:31:10;20.60;99.90
30973;DHT22;25423;45.624;13.790;2022-09-02T06:33:37;20.80;99.90
30973;DHT22;25423;45.624;13.790;2022-09-02T06:36:07;20.90;99.90
30973;DHT22;25423;45.624;13.790;2022-09-02T06:38:35;20.90;99.90
30973;DHT22;25423;45.624;13.790;2022-09-02T06:41:00;20.90;99.90
30973;DHT22;25423;45.624;13.790;2022-09-02T06:43:26;21.00;99.90
30973;DHT22;25423;45.624;13.790;2022-09-02T06:45:52;21.00;99.90
30973;DHT22;25423;45.624;13.790;2022-09-02T06:48:18;21.00;99.90
30973;DHT22;25423;45.624;13.790;2022-09-02T06:50:44;21.10;99.90
30973;DHT22;25423;45.624;13.790;2022-09-02T06:53:10;21.00;99.90
30973;DHT22;25423;45.624;13.790;2022-09-02T06:55:37;21.10;99.90
30973;DHT22;25423;45.624;13.790;2022-09-02T06:58:03;21.20;99.90
30973;DHT22;25423;45.624;13.790;2022-09-02T07:00:28;21.20;99.90
30973;DHT22;25423;45.624;13.790;2022-09-02T07:02:56;21.30;99.90
30973;DHT22;25423;45.624;13.790;2022-09-02T07:05:40;21.30;99.90
30973;DHT22;25423;45.624;13.790;2022-09-02T07:08:06;21.40;99.90
30973;DHT22;25423;45.624;13.790;2022-09-02T07:10:32;21.30;99.90
30973;DHT22;25423;45.624;13.790;2022-09-02T07:12:57;21.30;99.90
30973;DHT22;25423;45.624;13.790;2022-09-02T07:15:23;21.30;99.90
30973;DHT22;25423;45.624;13.790;2022-09-02T07:17:49;21.50;99.90
30973;DHT22;25423;45.624;13.790;2022-09-02T07:20:15;21.50;99.90
30973;DHT22;25423;45.624;13.790;2022-09-02T07:22:41;21.50;99.90
30973;DHT22;25423;45.624;13.790;2022-09-02T07:25:07;21.50;99.90
30973;DHT22;25423;45.624;13.790;2022-09-02T07:27:33;21.50;99.90
30973;DHT22;25423;45.624;13.790;2022-09-02T07:30:03;21.60;99.90
30973;DHT22;25423;45.624;13.790;2022-09-02T07:32:29;21.70;99.90
30973;DHT22;25423;45.624;13.790;2022-09-02T07:34:55;21.80;99.90
30973;DHT22;25423;45.624;13.790;2022-09-02T07:37:21;21.70;99.90
30973;DHT22;25423;45.624;13.790;2022-09-02T07:39:46;21.70;99.90
30973;DHT22;25423;45.624;13.790;2022-09-02T07:42:12;21.70;99.90
30973;DHT22;25423;45.624;13.790;2022-09-02T07:44:38;21.80;99.90
30973;DHT22;25423;45.624;13.790;2022-09-02T07:47:04;21.90;99.90
30973;DHT22;25423;45.624;13.790;2022-09-02T07:49:31;22.00;99.90
30973;DHT22;25423;45.624;13.790;2022-09-02T07:51:56;22.10;99.90
30973;DHT22;25423;45.624;13.790;2022-09-02T07:54:23;22.20;99.90
30973;DHT22;25423;45.624;13.790;2022-09-02T07:56:49;22.40;99.90
30973;DHT22;25423;45.624;13.790;2022-09-02T07:59:15;22.60;99.90
30973;DHT22;25423;45.624;13.790;2022-09-02T08:01:42;22.70;99.90
30973;DHT22;25423;45.624;13.790;2022-09-02T08:04:08;22.90;99.90
30973;DHT22;25423;45.624;13.790;2022-09-02T08:06:34;22.90;99.90
30973;DHT22;25423;45.624;13.790;2022-09-02T08:09:01;22.80;99.90
30973;DHT22;25423;45.624;13.790;2022-09-02T08:11:27;22.70;99.90
30973;DHT22;25423;45.624;13.790;2022-09-02T08:13:53;22.70;99.90
30973;DHT22;25423;45.624;13.790;2022-09-02T08:16:19;22.80;99.90
30973;DHT22;25423;45.624;13.790;2022-09-02T08:18:45;22.80;99.90
30973;DHT22;25423;45.624;13.790;2022-09-02T08:21:10;22.90;99.90
30973;DHT22;25423;45.624;13.790;2022-09-02T08:23:37;23.00;99.90
30973;DHT22;25423;45.624;13.790;2022-09-02T08:26:03;23.10;99.90
30973;DHT22;25423;45.624;13.790;2022-09-02T08:28:29;23.20;99.90
30973;DHT22;25423;45.624;13.790;2022-09-02T08:31:03;23.20;99.90
30973;DHT22;25423;45.624;13.790;2022-09-02T08:33:28;23.40;99.90
30973;DHT22;25423;45.624;13.790;2022-09-02T08:35:54;23.50;99.90
30973;DHT22;25423;45.624;13.790;2022-09-02T08:38:19;23.60;99.90
30973;DHT22;25423;45.624;13.790;2022-09-02T08:40:46;23.50;99.90
30973;DHT22;25423;45.624;13.790;2022-09-02T08:45:50;23.70;99.90
30973;DHT22;25423;45.624;13.790;2022-09-02T08:48:19;23.70;99.90
30973;DHT22;25423;45.624;13.790;2022-09-02T08:50:46;23.50;99.90
30973;DHT22;25423;45.624;13.790;2022-09-02T08:53:29;23.50;99.90
30973;DHT22;25423;45.624;13.790;2022-09-02T08:55:56;23.50;99.90
30973;DHT22;25423;45.624;13.790;2022-09-02T08:58:23;23.70;99.90
30973;DHT22;25423;45.624;13.790;2022-09-02T09:00:51;23.70;99.90
30973;DHT22;25423;45.624;13.790;2022-09-02T09:08:34;23.80;99.90
30973;DHT22;25423;45.624;13.790;2022-09-02T09:11:04;23.80;99.90
30973;DHT22;25423;45.624;13.790;2022-09-02T09:18:51;23.90;99.90
30973;DHT22;25423;45.624;13.790;2022-09-02T09:21:19;23.90;99.90
30973;DHT22;25423;45.624;13.790;2022-09-02T09:23:45;23.90;99.90
30973;DHT22;25423;45.624;13.790;2022-09-02T09:26:12;24.00;99.90
30973;DHT22;25423;45.624;13.790;2022-09-02T09:28:45;24.10;99.90
30973;DHT22;25423;45.624;13.790;2022-09-02T09:31:13;24.10;99.90
30973;DHT22;25423;45.624;13.790;2022-09-02T09:33:53;24.00;99.90
30973;DHT22;25423;45.624;13.790;2022-09-02T09:36:19;24.10;99.90
30973;DHT22;25423;45.624;13.790;2022-09-02T09:38:44;24.20;99.90
30973;DHT22;25423;45.624;13.790;2022-09-02T09:41:13;24.20;99.90
30973;DHT22;25423;45.624;13.790;2022-09-02T09:43:38;24.20;99.90
30973;DHT22;25423;45.624;13.790;2022-09-02T09:48:48;24.30;99.90
30973;DHT22;25423;45.624;13.790;2022-09-02T09:51:14;24.40;99.90
30973;DHT22;25423;45.624;13.790;2022-09-02T09:53:40;24.40;99.90
30973;DHT22;25423;45.624;13.790;2022-09-02T10:01:12;24.50;99.90
30973;DHT22;25423;45.624;13.790;2022-09-02T10:03:46;24.40;99.90
30973;DHT22;25423;45.624;13.790;2022-09-02T10:06:17;24.40;99.90
30973;DHT22;25423;45.624;13.790;2022-09-02T10:08:50;24.60;99.90
30973;DHT22;25423;45.624;13.790;2022-09-02T10:11:35;24.60;99.90
30973;DHT22;25423;45.624;13.790;2022-09-02T10:14:03;24.70;99.90
30973;DHT22;25423;45.624;13.790;2022-09-02T10:26:53;24.90;99.90
30973;DHT22;25423;45.624;13.790;2022-09-02T10:31:59;25.00;99.90
30973;DHT22;25423;45.624;13.790;2022-09-02T10:34:36;25.00;99.90
30973;DHT22;25423;45.624;13.790;2022-09-02T10:37:18;25.00;99.90
30973;DHT22;25423;45.624;13.790;2022-09-02T10:44:55;25.30;99.90
30973;DHT22;25423;45.624;13.790;2022-09-02T10:50:36;25.60;99.90
30973;DHT22;25423;45.624;13.790;2022-09-02T10:52:45;25.80;99.90
30973;DHT22;25423;45.624;13.790;2022-09-02T10:58:02;25.90;99.90
30973;DHT22;25423;45.624;13.790;2022-09-02T11:00:29;26.00;99.90
30973;DHT22;25423;45.624;13.790;2022-09-02T11:05:27;26.00;99.90
30973;DHT22;25423;45.624;13.790;2022-09-02T11:11:24;26.20;99.90
30973;DHT22;25423;45.624;13.790;2022-09-02T11:18:32;25.90;99.90
30973;DHT22;25423;45.624;13.790;2022-09-02T11:25:57;26.30;99.90
30973;DHT22;25423;45.624;13.790;2022-09-02T11:28:32;26.60;99.90
30973;DHT22;25423;45.624;13.790;2022-09-02T11:31:19;26.80;99.90
30973;DHT22;25423;45.624;13.790;2022-09-02T11:33:54;26.70;99.90
30973;DHT22;25423;45.624;13.790;2022-09-02T11:36:24;26.60;99.90
30973;DHT22;25423;45.624;13.790;2022-09-02T11:38:58;26.50;99.90
30973;DHT22;25423;45.624;13.790;2022-09-02T11:47:08;26.80;99.90
30973;DHT22;25423;45.624;13.790;2022-09-02T11:55:09;27.10;99.90
30973;DHT22;25423;45.624;13.790;2022-09-02T11:57:40;26.80;99.90
30973;DHT22;25423;45.624;13.790;2022-09-02T12:00:11;26.70;99.90
30973;DHT22;25423;45.624;13.790;2022-09-02T12:07:48;26.40;99.90
30973;DHT22;25423;45.624;13.790;2022-09-02T12:15:24;26.20;99.90
30973;DHT22;25423;45.624;13.790;2022-09-02T12:26:01;26.20;99.90
30973;DHT22;25423;45.624;13.790;2022-09-02T12:28:30;26.10;99.90
30973;DHT22;25423;45.624;13.790;2022-09-02T12:33:35;26.60;99.90
30973;DHT22;25423;45.624;13.790;2022-09-02T12:36:01;26.70;99.90
30973;DHT22;25423;45.624;13.790;2022-09-02T12:43:24;27.00;99.90
30973;DHT22;25423;45.624;13.790;2022-09-02T12:45:52;26.90;99.90
30973;DHT22;25423;45.624;13.790;2022-09-02T12:48:18;26.80;99.90
30973;DHT22;25423;45.624;13.790;2022-09-02T12:50:50;27.00;99.90
30973;DHT22;25423;45.624;13.790;2022-09-02T12:55:57;26.50;99.90
30973;DHT22;25423;45.624;13.790;2022-09-02T12:58:23;26.40;99.90
30973;DHT22;25423;45.624;13.790;2022-09-02T13:06:19;26.30;99.90
30973;DHT22;25423;45.624;13.790;2022-09-02T13:27:24;27.40;99.90
30973;DHT22;25423;45.624;13.790;2022-09-02T13:34:45;27.40;99.90
30973;DHT22;25423;45.624;13.790;2022-09-02T13:37:27;27.60;99.90
30973;DHT22;25423;45.624;13.790;2022-09-02T13:39:53;27.50;99.90
30973;DHT22;25423;45.624;13.790;2022-09-02T13:42:23;27.40;99.90
30973;DHT22;25423;45.624;13.790;2022-09-02T13:44:49;27.60;99.90
30973;DHT22;25423;45.624;13.790;2022-09-02T13:47:16;27.80;99.90
30973;DHT22;25423;45.624;13.790;2022-09-02T13:49:48;27.70;99.90
30973;DHT22;25423;45.624;13.790;2022-09-02T13:52:19;27.40;99.90
30973;DHT22;25423;45.624;13.790;2022-09-02T13:54:46;27.20;99.90
30973;DHT22;25423;45.624;13.790;2022-09-02T13:57:16;27.00;99.90
30973;DHT22;25423;45.624;13.790;2022-09-02T13:59:47;26.80;99.90
30973;DHT22;25423;45.624;13.790;2022-09-02T14:02:24;27.00;99.90
30973;DHT22;25423;45.624;13.790;2022-09-02T14:07:30;26.80;99.90
30973;DHT22;25423;45.624;13.790;2022-09-02T14:09:57;27.00;99.90
30973;DHT22;25423;45.624;13.790;2022-09-02T14:12:25;27.00;99.90
30973;DHT22;25423;45.624;13.790;2022-09-02T14:14:51;27.00;99.90
30973;DHT22;25423;45.624;13.790;2022-09-02T14:17:24;26.90;99.90
30973;DHT22;25423;45.624;13.790;2022-09-02T14:19:50;26.70;99.90
30973;DHT22;25423;45.624;13.790;2022-09-02T14:22:23;26.70;99.90
30973;DHT22;25423;45.624;13.790;2022-09-02T14:24:50;26.90;99.90
30973;DHT22;25423;45.624;13.790;2022-09-02T14:27:16;26.80;99.90
30973;DHT22;25423;45.624;13.790;2022-09-02T14:29:43;26.80;99.90
30973;DHT22;25423;45.624;13.790;2022-09-02T14:32:10;26.90;99.90
30973;DHT22;25423;45.624;13.790;2022-09-02T14:34:38;26.90;99.90
30973;DHT22;25423;45.624;13.790;2022-09-02T14:37:23;26.80;99.90
30973;DHT22;25423;45.624;13.790;2022-09-02T14:40:00;26.70;99.90
30973;DHT22;25423;45.624;13.790;2022-09-02T14:42:26;26.70;99.90
30973;DHT22;25423;45.624;13.790;2022-09-02T14:44:52;26.50;99.90
30973;DHT22;25423;45.624;13.790;2022-09-02T14:47:18;26.40;99.90
30973;DHT22;25423;45.624;13.790;2022-09-02T14:49:45;26.50;99.90
30973;DHT22;25423;45.624;13.790;2022-09-02T14:52:18;26.50;99.90
30973;DHT22;25423;45.624;13.790;2022-09-02T14:54:48;26.50;99.90
30973;DHT22;25423;45.624;13.790;2022-09-02T14:59:48;26.30;99.90
30973;DHT22;25423;45.624;13.790;2022-09-02T15:04:52;26.50;99.90
30973;DHT22;25423;45.624;13.790;2022-09-02T15:07:18;26.40;99.90
30973;DHT22;25423;45.624;13.790;2022-09-02T15:09:43;26.30;99.90
30973;DHT22;25423;45.624;13.790;2022-09-02T15:12:10;26.20;99.90
30973;DHT22;25423;45.624;13.790;2022-09-02T15:14:36;26.20;99.90
30973;DHT22;25423;45.624;13.790;2022-09-02T15:17:03;26.30;99.90
30973;DHT22;25423;45.624;13.790;2022-09-02T15:19:31;26.30;99.90
30973;DHT22;25423;45.624;13.790;2022-09-02T15:21:57;26.20;99.90
30973;DHT22;25423;45.624;13.790;2022-09-02T15:24:23;26.20;99.90
30973;DHT22;25423;45.624;13.790;2022-09-02T15:26:48;26.10;99.90
30973;DHT22;25423;45.624;13.790;2022-09-02T15:29:14;26.20;99.90
30973;DHT22;25423;45.624;13.790;2022-09-02T15:31:40;26.20;99.90
30973;DHT22;25423;45.624;13.790;2022-09-02T15:34:06;26.30;99.90
30973;DHT22;25423;45.624;13.790;2022-09-02T15:36:32;26.40;99.90
30973;DHT22;25423;45.624;13.790;2022-09-02T15:38:57;26.50;99.90
30973;DHT22;25423;45.624;13.790;2022-09-02T15:41:24;26.40;99.90
30973;DHT22;25423;45.624;13.790;2022-09-02T15:43:56;26.40;99.90
30973;DHT22;25423;45.624;13.790;2022-09-02T15:48:50;26.40;99.90
30973;DHT22;25423;45.624;13.790;2022-09-02T15:51:17;26.30;99.90
30973;DHT22;25423;45.624;13.790;2022-09-02T15:53:42;26.30;99.90
30973;DHT22;25423;45.624;13.790;2022-09-02T15:56:15;26.30;99.90
30973;DHT22;25423;45.624;13.790;2022-09-02T15:58:40;26.30;99.90
30973;DHT22;25423;45.624;13.790;2022-09-02T16:01:06;26.30;99.90
30973;DHT22;25423;45.624;13.790;2022-09-02T16:03:32;26.20;99.90
30973;DHT22;25423;45.624;13.790;2022-09-02T16:06:00;26.20;99.90
30973;DHT22;25423;45.624;13.790;2022-09-02T16:08:26;26.20;99.90
30973;DHT22;25423;45.624;13.790;2022-09-02T16:10:52;26.30;99.90
30973;DHT22;25423;45.624;13.790;2022-09-02T16:13:17;26.20;99.90
30973;DHT22;25423;45.624;13.790;2022-09-02T16:15:43;26.20;99.90
30973;DHT22;25423;45.624;13.790;2022-09-02T16:18:10;26.10;99.90
30973;DHT22;25423;45.624;13.790;2022-09-02T16:20:35;26.10;99.90
30973;DHT22;25423;45.624;13.790;2022-09-02T16:23:01;26.10;99.90
30973;DHT22;25423;45.624;13.790;2022-09-02T16:25:26;26.10;99.90
30973;DHT22;25423;45.624;13.790;2022-09-02T16:27:52;26.00;99.90
30973;DHT22;25423;45.624;13.790;2022-09-02T16:30:19;26.10;99.90
30973;DHT22;25423;45.624;13.790;2022-09-02T16:32:46;26.20;99.90
30973;DHT22;25423;45.624;13.790;2022-09-02T16:35:12;26.20;99.90
30973;DHT22;25423;45.624;13.790;2022-09-02T16:37:37;26.10;99.90
30973;DHT22;25423;45.624;13.790;2022-09-02T16:40:03;26.10;99.90
30973;DHT22;25423;45.624;13.790;2022-09-02T16:42:29;26.00;99.90
30973;DHT22;25423;45.624;13.790;2022-09-02T16:44:55;25.90;99.90
30973;DHT22;25423;45.624;13.790;2022-09-02T16:47:20;25.80;99.90
30973;DHT22;25423;45.624;13.790;2022-09-02T16:49:46;25.80;99.90
30973;DHT22;25423;45.624;13.790;2022-09-02T16:52:12;25.90;99.90
30973;DHT22;25423;45.624;13.790;2022-09-02T16:54:37;25.80;99.90
30973;DHT22;25423;45.624;13.790;2022-09-02T16:57:03;25.80;99.90
30973;DHT22;25423;45.624;13.790;2022-09-02T16:59:29;25.80;99.90
30973;DHT22;25423;45.624;13.790;2022-09-02T17:01:57;25.60;99.90
30973;DHT22;25423;45.624;13.790;2022-09-02T17:04:22;25.50;99.90
30973;DHT22;25423;45.624;13.790;2022-09-02T17:06:48;25.50;99.90
30973;DHT22;25423;45.624;13.790;2022-09-02T17:09:14;25.50;99.90
30973;DHT22;25423;45.624;13.790;2022-09-02T17:11:40;25.60;99.90
30973;DHT22;25423;45.624;13.790;2022-09-02T17:14:10;25.50;99.90
30973;DHT22;25423;45.624;13.790;2022-09-02T17:16:40;25.30;99.90
30973;DHT22;25423;45.624;13.790;2022-09-02T17:19:06;25.30;99.90
30973;DHT22;25423;45.624;13.790;2022-09-02T17:23:58;25.10;99.90
30973;DHT22;25423;45.624;13.790;2022-09-02T17:26:24;24.90;99.90
30973;DHT22;25423;45.624;13.790;2022-09-02T17:28:51;24.80;99.90
30973;DHT22;25423;45.624;13.790;2022-09-02T17:33:45;24.60;99.90
30973;DHT22;25423;45.624;13.790;2022-09-02T17:36:10;24.50;99.90
30973;DHT22;25423;45.624;13.790;2022-09-02T17:38:36;24.40;99.90